sensor_id;sensor_type;location;lat;lon;timestamp;temperature;humidity
37658;DHT22;23500;53.268;8.308;2022-07-03T00:00:11;22.50;62.60
37658;DHT22;23500;53.268;8.308;2022-07-03T00:02:37;22.50;62.60
37658;DHT22;23500;53.268;8.308;2022-07-03T00:05:03;22.50;62.50
37658;DHT22;23500;53.268;8.308;2022-07-03T00:07:29;22.50;62.70
37658;DHT22;23500;53.268;8.308;2022-07-03T00:09:56;22.50;62.80
37658;DHT22;23500;53.268;8.308;2022-07-03T00:12:21;22.50;62.80
37658;DHT22;23500;53.268;8.308;2022-07-03T00:14:47;22.50;62.90
37658;DHT22;23500;53.268;8.308;2022-07-03T00:17:13;22.40;62.80
37658;DHT22;23500;53.268;8.308;2022-07-03T00:19:38;22.40;62.80
37658;DHT22;23500;53.268;8.308;2022-07-03T00:22:05;22.40;62.80
37658;DHT22;23500;53.268;8.308;2022-07-03T00:24:45;22.40;62.90
37658;DHT22;23500;53.268;8.308;2022-07-03T00:27:15;22.40;63.10
37658;DHT22;23500;53.268;8.308;2022-07-03T00:29:42;22.40;63.20
37658;DHT22;23500;53.268;8.308;2022-07-03T00:32:12;22.40;63.20
37658;DHT22;23500;53.268;8.308;2022-07-03T00:34:40;22.30;63.30
37658;DHT22;23500;53.268;8.308;2022-07-03T00:37:07;22.30;63.30
37658;DHT22;23500;53.268;8.308;2022-07-03T00:39:38;22.30;63.40
37658;DHT22;23500;53.268;8.308;2022-07-03T00:42:05;22.30;63.40
37658;DHT22;23500;53.268;8.308;2022-07-03T00:44:34;22.30;63.50
37658;DHT22;23500;53.268;8.308;2022-07-03T00:47:03;22.30;63.50
37658;DHT22;23500;53.268;8.308;2022-07-03T00:49:33;22.30;63.50
37658;DHT22;23500;53.268;8.308;2022-07-03T00:52:04;22.30;63.40
37658;DHT22;23500;53.268;8.308;2022-07-03T00:54:33;22.30;63.50
37658;DHT22;23500;53.268;8.308;2022-07-03T00:57:00;22.30;63.60
37658;DHT22;23500;53.268;8.308;2022-07-03T00:59:26;22.30;63.50
37658;DHT22;23500;53.268;8.308;2022-07-03T01:01:57;22.30;63.40
37658;DHT22;23500;53.268;8.308;2022-07-03T01:04:45;22.30;63.40
37658;DHT22;23500;53.268;8.308;2022-07-03T01:13:25;22.20;63.40
37658;DHT22;23500;53.268;8.308;2022-07-03T01:16:01;22.20;63.70
37658;DHT22;23500;53.268;8.308;2022-07-03T01:18:44;22.20;63.70
37658;DHT22;23500;53.268;8.308;2022-07-03T01:24:43;22.20;63.80
37658;DHT22;23500;53.268;8.308;2022-07-03T01:27:18;22.10;63.80
37658;DHT22;23500;53.268;8.308;2022-07-03T01:32:20;22.10;63.80
37658;DHT22;23500;53.268;8.308;2022-07-03T01:34:52;22.10;64.00
37658;DHT22;23500;53.268;8.308;2022-07-03T01:37:21;22.10;64.00
37658;DHT22;23500;53.268;8.308;2022-07-03T01:39:52;22.10;64.00
37658;DHT22;23500;53.268;8.308;2022-07-03T01:42:19;22.10;64.10
37658;DHT22;23500;53.268;8.308;2022-07-03T01:44:47;22.10;64.10
37658;DHT22;23500;53.268;8.308;2022-07-03T01:47:16;22.10;64.30
37658;DHT22;23500;53.268;8.308;2022-07-03T01:49:43;22.10;64.30
37658;DHT22;23500;53.268;8.308;2022-07-03T01:52:11;22.10;64.30
37658;DHT22;23500;53.268;8.308;2022-07-03T01:54:39;22.00;64.20
37658;DHT22;23500;53.268;8.308;2022-07-03T01:57:08;22.10;64.30
37658;DHT22;23500;53.268;8.308;2022-07-03T01:59:34;22.00;64.20
37658;DHT22;23500;53.268;8.308;2022-07-03T02:02:09;22.00;64.20
37658;DHT22;23500;53.268;8.308;2022-07-03T02:05:07;22.00;64.30
37658;DHT22;23500;53.268;8.308;2022-07-03T02:07:53;22.00;64.30
37658;DHT22;23500;53.268;8.308;2022-07-03T02:10:28;22.00;64.40
37658;DHT22;23500;53.268;8.308;2022-07-03T02:13:06;22.00;64.40
37658;DHT22;23500;53.268;8.308;2022-07-03T02:15:35;22.00;64.60
37658;DHT22;23500;53.268;8.308;2022-07-03T02:18:11;22.00;64.70
37658;DHT22;23500;53.268;8.308;2022-07-03T02:20:46;21.90;64.60
37658;DHT22;23500;53.268;8.308;2022-07-03T02:23:16;21.90;64.60
37658;DHT22;23500;53.268;8.308;2022-07-03T02:25:46;21.90;64.70
37658;DHT22;23500;53.268;8.308;2022-07-03T02:28:29;21.90;64.60
37658;DHT22;23500;53.268;8.308;2022-07-03T02:30:59;21.90;64.60
37658;DHT22;23500;53.268;8.308;2022-07-03T02:33:30;21.90;64.60
37658;DHT22;23500;53.268;8.308;2022-07-03T02:35:57;21.90;64.70
37658;DHT22;23500;53.268;8.308;2022-07-03T02:38:24;21.90;64.80
37658;DHT22;23500;53.268;8.308;2022-07-03T02:41:01;21.90;64.90
37658;DHT22;23500;53.268;8.308;2022-07-03T02:46:20;21.90;64.80
37658;DHT22;23500;53.268;8.308;2022-07-03T02:51:50;21.90;64.90
37658;DHT22;23500;53.268;8.308;2022-07-03T02:54:19;21.90;65.00
37658;DHT22;23500;53.268;8.308;2022-07-03T02:57:05;21.80;65.00
37658;DHT22;23500;53.268;8.308;2022-07-03T02:59:57;21.80;65.00
37658;DHT22;23500;53.268;8.308;2022-07-03T03:02:57;21.80;65.00
37658;DHT22;23500;53.268;8.308;2022-07-03T03:05:40;21.80;65.10
37658;DHT22;23500;53.268;8.308;2022-07-03T03:10:50;21.80;65.30
37658;DHT22;23500;53.268;8.308;2022-07-03T03:13:17;21.80;65.20
37658;DHT22;23500;53.268;8.308;2022-07-03T03:16:08;21.80;65.30
37658;DHT22;23500;53.268;8.308;2022-07-03T03:18:36;21.80;65.30
37658;DHT22;23500;53.268;8.308;2022-07-03T03:21:04;21.80;65.40
37658;DHT22;23500;53.268;8.308;2022-07-03T03:23:46;21.80;65.40
37658;DHT22;23500;53.268;8.308;2022-07-03T03:26:19;21.80;65.40
37658;DHT22;23500;53.268;8.308;2022-07-03T03:28:45;21.80;65.50
37658;DHT22;23500;53.268;8.308;2022-07-03T03:31:11;21.80;65.40
37658;DHT22;23500;53.268;8.308;2022-07-03T03:33:42;21.80;65.40
37658;DHT22;23500;53.268;8.308;2022-07-03T03:36:09;21.80;65.50
37658;DHT22;23500;53.268;8.308;2022-07-03T03:38:36;21.80;65.50
37658;DHT22;23500;53.268;8.308;2022-07-03T03:41:03;21.80;65.50
37658;DHT22;23500;53.268;8.308;2022-07-03T03:43:29;21.80;65.60
37658;DHT22;23500;53.268;8.308;2022-07-03T03:45:55;21.80;65.70
37658;DHT22;23500;53.268;8.308;2022-07-03T03:48:21;21.80;65.60
37658;DHT22;23500;53.268;8.308;2022-07-03T03:50:47;21.80;65.60
37658;DHT22;23500;53.268;8.308;2022-07-03T03:53:12;21.80;65.60
37658;DHT22;23500;53.268;8.308;2022-07-03T03:58:18;21.80;65.70
37658;DHT22;23500;53.268;8.308;2022-07-03T04:00:44;21.80;65.70
37658;DHT22;23500;53.268;8.308;2022-07-03T04:03:09;21.80;65.70
37658;DHT22;23500;53.268;8.308;2022-07-03T04:05:35;21.80;65.90
37658;DHT22;23500;53.268;8.308;2022-07-03T04:08:01;21.70;65.70
37658;DHT22;23500;53.268;8.308;2022-07-03T04:10:26;21.80;65.70
37658;DHT22;23500;53.268;8.308;2022-07-03T04:12:52;21.80;66.00
37658;DHT22;23500;53.268;8.308;2022-07-03T04:15:18;21.80;65.90
37658;DHT22;23500;53.268;8.308;2022-07-03T04:17:43;21.80;65.80
37658;DHT22;23500;53.268;8.308;2022-07-03T04:20:09;21.80;65.70
37658;DHT22;23500;53.268;8.308;2022-07-03T04:22:35;21.80;65.80
37658;DHT22;23500;53.268;8.308;2022-07-03T04:25:01;21.80;65.70
37658;DHT22;23500;53.268;8.308;2022-07-03T04:27:26;21.80;65.60
37658;DHT22;23500;53.268;8.308;2022-07-03T04:29:52;21.80;65.90
37658;DHT22;23500;53.268;8.308;2022-07-03T04:32:18;21.80;65.90
37658;DHT22;23500;53.268;8.308;2022-07-03T04:34:43;21.80;65.80
37658;DHT22;23500;53.268;8.308;2022-07-03T04:37:09;21.90;65.80
37658;DHT22;23500;53.268;8.308;2022-07-03T04:39:35;21.90;65.80
37658;DHT22;23500;53.268;8.308;2022-07-03T04:42:00;21.90;65.70
37658;DHT22;23500;53.268;8.308;2022-07-03T04:44:26;22.00;66.40
37658;DHT22;23500;53.268;8.308;2022-07-03T04:46:51;22.00;65.60
37658;DHT22;23500;53.268;8.308;2022-07-03T04:49:17;22.00;65.60
37658;DHT22;23500;53.268;8.308;2022-07-03T04:51:43;22.00;65.80
37658;DHT22;23500;53.268;8.308;2022-07-03T04:54:08;22.10;65.40
37658;DHT22;23500;53.268;8.308;2022-07-03T04:56:34;22.10;65.50
37658;DHT22;23500;53.268;8.308;2022-07-03T04:59:00;22.10;65.00
37658;DHT22;23500;53.268;8.308;2022-07-03T05:01:26;22.10;65.40
37658;DHT22;23500;53.268;8.308;2022-07-03T05:03:51;22.20;65.00
37658;DHT22;23500;53.268;8.308;2022-07-03T05:06:17;22.20;65.10
37658;DHT22;23500;53.268;8.308;2022-07-03T05:08:43;22.20;65.10
37658;DHT22;23500;53.268;8.308;2022-07-03T05:11:08;22.20;65.00
37658;DHT22;23500;53.268;8.308;2022-07-03T05:13:34;22.30;64.70
37658;DHT22;23500;53.268;8.308;2022-07-03T05:16:00;22.30;64.50
37658;DHT22;23500;53.268;8.308;2022-07-03T05:18:25;22.40;64.40
37658;DHT22;23500;53.268;8.308;2022-07-03T05:20:51;22.40;64.50
37658;DHT22;23500;53.268;8.308;2022-07-03T05:23:16;22.40;64.50
37658;DHT22;23500;53.268;8.308;2022-07-03T05:25:42;22.40;64.40
37658;DHT22;23500;53.268;8.308;2022-07-03T05:28:08;22.40;64.70
37658;DHT22;23500;53.268;8.308;2022-07-03T05:30:34;22.40;64.30
37658;DHT22;23500;53.268;8.308;2022-07-03T05:33:00;22.40;64.20
37658;DHT22;23500;53.268;8.308;2022-07-03T05:35:25;22.40;64.50
37658;DHT22;23500;53.268;8.308;2022-07-03T05:37:51;22.50;64.70
37658;DHT22;23500;53.268;8.308;2022-07-03T05:40:17;22.50;64.80
37658;DHT22;23500;53.268;8.308;2022-07-03T05:42:43;22.70;63.40
37658;DHT22;23500;53.268;8.308;2022-07-03T05:45:09;22.70;63.30
37658;DHT22;23500;53.268;8.308;2022-07-03T05:47:35;22.70;63.00
37658;DHT22;23500;53.268;8.308;2022-07-03T05:50:01;22.90;62.70
37658;DHT22;23500;53.268;8.308;2022-07-03T05:52:27;22.90;62.60
37658;DHT22;23500;53.268;8.308;2022-07-03T05:54:53;23.00;62.40
37658;DHT22;23500;53.268;8.308;2022-07-03T05:57:18;23.10;62.10
37658;DHT22;23500;53.268;8.308;2022-07-03T05:59:46;23.20;62.00
37658;DHT22;23500;53.268;8.308;2022-07-03T06:02:11;23.20;61.70
37658;DHT22;23500;53.268;8.308;2022-07-03T06:04:37;23.30;61.60
37658;DHT22;23500;53.268;8.308;2022-07-03T06:07:03;23.30;61.50
37658;DHT22;23500;53.268;8.308;2022-07-03T06:09:28;23.30;61.40
37658;DHT22;23500;53.268;8.308;2022-07-03T06:11:54;23.40;61.40
37658;DHT22;23500;53.268;8.308;2022-07-03T06:14:20;23.40;61.30
37658;DHT22;23500;53.268;8.308;2022-07-03T06:16:45;23.40;61.20
37658;DHT22;23500;53.268;8.308;2022-07-03T06:19:11;23.50;61.20
37658;DHT22;23500;53.268;8.308;2022-07-03T06:21:37;23.50;61.20
37658;DHT22;23500;53.268;8.308;2022-07-03T06:24:03;23.50;61.20
37658;DHT22;23500;53.268;8.308;2022-07-03T06:26:29;23.50;61.20
37658;DHT22;23500;53.268;8.308;2022-07-03T06:28:55;23.50;61.20
37658;DHT22;23500;53.268;8.308;2022-07-03T06:31:20;23.50;62.00
37658;DHT22;23500;53.268;8.308;2022-07-03T06:33:46;23.50;61.40
37658;DHT22;23500;53.268;8.308;2022-07-03T06:36:12;23.40;61.40
37658;DHT22;23500;53.268;8.308;2022-07-03T06:38:37;23.40;61.40
37658;DHT22;23500;53.268;8.308;2022-07-03T06:41:03;23.40;61.40
37658;DHT22;23500;53.268;8.308;2022-07-03T06:43:29;23.40;61.40
37658;DHT22;23500;53.268;8.308;2022-07-03T06:45:54;23.40;61.60
37658;DHT22;23500;53.268;8.308;2022-07-03T06:48:20;23.40;61.60
37658;DHT22;23500;53.268;8.308;2022-07-03T06:50:46;23.30;61.80
37658;DHT22;23500;53.268;8.308;2022-07-03T06:53:12;23.30;61.90
37658;DHT22;23500;53.268;8.308;2022-07-03T06:55:37;23.30;62.00
37658;DHT22;23500;53.268;8.308;2022-07-03T06:58:03;23.30;62.00
37658;DHT22;23500;53.268;8.308;2022-07-03T07:00:29;23.30;61.90
37658;DHT22;23500;53.268;8.308;2022-07-03T07:02:55;23.30;61.90
37658;DHT22;23500;53.268;8.308;2022-07-03T07:05:21;23.30;61.70
37658;DHT22;23500;53.268;8.308;2022-07-03T07:07:48;23.40;61.60
37658;DHT22;23500;53.268;8.308;2022-07-03T07:10:14;23.40;61.50
37658;DHT22;23500;53.268;8.308;2022-07-03T07:12:39;23.50;61.50
37658;DHT22;23500;53.268;8.308;2022-07-03T07:15:05;23.50;61.30
37658;DHT22;23500;53.268;8.308;2022-07-03T07:17:31;23.60;61.40
37658;DHT22;23500;53.268;8.308;2022-07-03T07:19:57;23.60;61.30
37658;DHT22;23500;53.268;8.308;2022-07-03T07:22:23;23.60;61.20
37658;DHT22;23500;53.268;8.308;2022-07-03T07:24:51;23.60;61.10
37658;DHT22;23500;53.268;8.308;2022-07-03T07:27:16;23.70;61.20
37658;DHT22;23500;53.268;8.308;2022-07-03T07:29:42;23.70;61.10
37658;DHT22;23500;53.268;8.308;2022-07-03T07:32:08;23.70;61.10
37658;DHT22;23500;53.268;8.308;2022-07-03T07:34:33;23.70;60.90
37658;DHT22;23500;53.268;8.308;2022-07-03T07:36:59;23.60;60.80
37658;DHT22;23500;53.268;8.308;2022-07-03T07:39:24;23.60;61.10
37658;DHT22;23500;53.268;8.308;2022-07-03T07:41:50;23.50;61.20
37658;DHT22;23500;53.268;8.308;2022-07-03T07:44:16;23.50;61.30
37658;DHT22;23500;53.268;8.308;2022-07-03T07:46:42;23.40;61.40
37658;DHT22;23500;53.268;8.308;2022-07-03T07:49:07;23.40;61.60
37658;DHT22;23500;53.268;8.308;2022-07-03T07:51:33;23.40;61.70
37658;DHT22;23500;53.268;8.308;2022-07-03T07:53:58;23.40;61.70
37658;DHT22;23500;53.268;8.308;2022-07-03T07:56:25;23.40;62.00
37658;DHT22;23500;53.268;8.308;2022-07-03T07:58:51;23.40;62.00
37658;DHT22;23500;53.268;8.308;2022-07-03T08:01:18;23.40;62.10
37658;DHT22;23500;53.268;8.308;2022-07-03T08:04:03;23.30;62.30
37658;DHT22;23500;53.268;8.308;2022-07-03T08:06:47;23.30;62.40
37658;DHT22;23500;53.268;8.308;2022-07-03T08:09:13;23.30;62.30
37658;DHT22;23500;53.268;8.308;2022-07-03T08:11:39;23.30;62.50
37658;DHT22;23500;53.268;8.308;2022-07-03T08:14:05;23.30;62.60
37658;DHT22;23500;53.268;8.308;2022-07-03T08:16:33;23.40;62.60
37658;DHT22;23500;53.268;8.308;2022-07-03T08:18:59;23.30;62.60
37658;DHT22;23500;53.268;8.308;2022-07-03T08:21:25;23.30;62.60
37658;DHT22;23500;53.268;8.308;2022-07-03T08:23:51;23.30;62.60
37658;DHT22;23500;53.268;8.308;2022-07-03T08:26:16;23.30;62.60
37658;DHT22;23500;53.268;8.308;2022-07-03T08:28:42;23.30;62.60
37658;DHT22;23500;53.268;8.308;2022-07-03T08:31:08;23.30;62.60
37658;DHT22;23500;53.268;8.308;2022-07-03T08:33:33;23.30;62.60
37658;DHT22;23500;53.268;8.308;2022-07-03T08:35:59;23.30;62.70
37658;DHT22;23500;53.268;8.308;2022-07-03T08:38:31;23.30;62.70
37658;DHT22;23500;53.268;8.308;2022-07-03T08:41:02;23.30;62.70
37658;DHT22;23500;53.268;8.308;2022-07-03T08:43:28;23.30;62.70
37658;DHT22;23500;53.268;8.308;2022-07-03T08:45:54;23.30;62.70
37658;DHT22;23500;53.268;8.308;2022-07-03T08:48:22;23.30;62.80
37658;DHT22;23500;53.268;8.308;2022-07-03T08:50:49;23.30;62.70
37658;DHT22;23500;53.268;8.308;2022-07-03T08:53:15;23.30;62.80
37658;DHT22;23500;53.268;8.308;2022-07-03T08:55:41;23.30;62.90
37658;DHT22;23500;53.268;8.308;2022-07-03T08:58:10;23.20;62.80
37658;DHT22;23500;53.268;8.308;2022-07-03T09:00:36;23.20;62.90
37658;DHT22;23500;53.268;8.308;2022-07-03T09:03:03;23.20;62.80
37658;DHT22;23500;53.268;8.308;2022-07-03T09:05:30;23.20;63.00
37658;DHT22;23500;53.268;8.308;2022-07-03T09:07:57;23.20;63.00
37658;DHT22;23500;53.268;8.308;2022-07-03T09:10:24;23.20;63.00
37658;DHT22;23500;53.268;8.308;2022-07-03T09:12:50;23.20;63.00
37658;DHT22;23500;53.268;8.308;2022-07-03T09:15:16;23.20;63.10
37658;DHT22;23500;53.268;8.308;2022-07-03T09:18:02;23.20;63.00
37658;DHT22;23500;53.268;8.308;2022-07-03T09:20:38;23.20;63.00
37658;DHT22;23500;53.268;8.308;2022-07-03T09:23:18;23.20;63.00
37658;DHT22;23500;53.268;8.308;2022-07-03T09:28:18;23.20;63.00
37658;DHT22;23500;53.268;8.308;2022-07-03T09:30:59;23.20;63.10
37658;DHT22;23500;53.268;8.308;2022-07-03T09:33:26;23.20;63.10
37658;DHT22;23500;53.268;8.308;2022-07-03T09:35:53;23.20;63.20
37658;DHT22;23500;53.268;8.308;2022-07-03T09:38:20;23.20;63.20
37658;DHT22;23500;53.268;8.308;2022-07-03T09:40:48;23.20;63.20
37658;DHT22;23500;53.268;8.308;2022-07-03T09:43:26;23.20;63.30
37658;DHT22;23500;53.268;8.308;2022-07-03T09:45:58;23.20;63.20
37658;DHT22;23500;53.268;8.308;2022-07-03T09:48:35;23.20;63.20
37658;DHT22;23500;53.268;8.308;2022-07-03T09:51:12;23.20;63.20
37658;DHT22;23500;53.268;8.308;2022-07-03T09:56:17;23.20;63.30
37658;DHT22;23500;53.268;8.308;2022-07-03T09:59:13;23.20;63.30
37658;DHT22;23500;53.268;8.308;2022-07-03T10:01:43;23.20;63.40
37658;DHT22;23500;53.268;8.308;2022-07-03T10:04:20;23.20;63.40
37658;DHT22;23500;53.268;8.308;2022-07-03T10:09:32;23.30;63.10
37658;DHT22;23500;53.268;8.308;2022-07-03T10:12:01;23.30;63.00
37658;DHT22;23500;53.268;8.308;2022-07-03T10:14:31;23.30;62.90
37658;DHT22;23500;53.268;8.308;2022-07-03T10:16:58;23.40;62.90
37658;DHT22;23500;53.268;8.308;2022-07-03T10:19:27;23.40;63.00
37658;DHT22;23500;53.268;8.308;2022-07-03T10:22:00;23.40;63.20
37658;DHT22;23500;53.268;8.308;2022-07-03T10:24:27;23.30;63.20
37658;DHT22;23500;53.268;8.308;2022-07-03T10:26:55;23.30;63.30
37658;DHT22;23500;53.268;8.308;2022-07-03T10:29:23;23.30;63.30
37658;DHT22;23500;53.268;8.308;2022-07-03T10:31:49;23.30;63.50
37658;DHT22;23500;53.268;8.308;2022-07-03T10:34:23;23.30;63.00
37658;DHT22;23500;53.268;8.308;2022-07-03T10:36:53;23.30;63.10
37658;DHT22;23500;53.268;8.308;2022-07-03T10:39:46;23.30;63.10
37658;DHT22;23500;53.268;8.308;2022-07-03T10:42:16;23.30;63.10
37658;DHT22;23500;53.268;8.308;2022-07-03T10:47:47;23.30;63.80
37658;DHT22;23500;53.268;8.308;2022-07-03T10:50:15;23.30;63.20
37658;DHT22;23500;53.268;8.308;2022-07-03T10:52:42;23.30;63.10
37658;DHT22;23500;53.268;8.308;2022-07-03T10:55:08;23.30;63.20
37658;DHT22;23500;53.268;8.308;2022-07-03T10:57:35;23.30;63.10
37658;DHT22;23500;53.268;8.308;2022-07-03T11:00:08;23.30;63.10
37658;DHT22;23500;53.268;8.308;2022-07-03T11:02:45;23.30;63.10
37658;DHT22;23500;53.268;8.308;2022-07-03T11:05:13;23.30;63.00
37658;DHT22;23500;53.268;8.308;2022-07-03T11:13:05;23.40;63.00
37658;DHT22;23500;53.268;8.308;2022-07-03T11:15:48;23.40;62.90
37658;DHT22;23500;53.268;8.308;2022-07-03T11:18:29;23.40;62.80
37658;DHT22;23500;53.268;8.308;2022-07-03T11:38:37;23.40;62.70
37658;DHT22;23500;53.268;8.308;2022-07-03T11:41:07;23.40;62.70
37658;DHT22;23500;53.268;8.308;2022-07-03T11:43:33;23.40;62.70
37658;DHT22;23500;53.268;8.308;2022-07-03T11:46:00;23.50;62.70
37658;DHT22;23500;53.268;8.308;2022-07-03T11:48:28;23.40;62.60
37658;DHT22;23500;53.268;8.308;2022-07-03T11:51:02;23.40;62.70
37658;DHT22;23500;53.268;8.308;2022-07-03T11:53:33;23.50;62.70
37658;DHT22;23500;53.268;8.308;2022-07-03T11:56:09;23.40;62.60
37658;DHT22;23500;53.268;8.308;2022-07-03T11:58:48;23.40;62.70
37658;DHT22;23500;53.268;8.308;2022-07-03T12:01:27;23.50;62.70
37658;DHT22;23500;53.268;8.308;2022-07-03T12:09:22;23.50;62.70
37658;DHT22;23500;53.268;8.308;2022-07-03T12:12:08;23.50;62.70
37658;DHT22;23500;53.268;8.308;2022-07-03T12:14:49;23.50;62.60
37658;DHT22;23500;53.268;8.308;2022-07-03T12:17:22;23.50;62.70
37658;DHT22;23500;53.268;8.308;2022-07-03T12:19:53;23.50;63.50
37658;DHT22;23500;53.268;8.308;2022-07-03T12:22:26;23.50;62.70
37658;DHT22;23500;53.268;8.308;2022-07-03T12:25:06;23.50;62.70
37658;DHT22;23500;53.268;8.308;2022-07-03T12:27:35;23.50;62.70
37658;DHT22;23500;53.268;8.308;2022-07-03T12:30:01;23.50;62.70
37658;DHT22;23500;53.268;8.308;2022-07-03T12:32:27;23.50;62.70
37658;DHT22;23500;53.268;8.308;2022-07-03T12:34:53;23.50;62.70
37658;DHT22;23500;53.268;8.308;2022-07-03T12:37:51;23.50;62.70
37658;DHT22;23500;53.268;8.308;2022-07-03T12:40:17;23.60;62.60
37658;DHT22;23500;53.268;8.308;2022-07-03T12:42:45;23.60;62.50
37658;DHT22;23500;53.268;8.308;2022-07-03T12:45:13;23.50;62.50
37658;DHT22;23500;53.268;8.308;2022-07-03T12:47:39;23.50;62.60
37658;DHT22;23500;53.268;8.308;2022-07-03T12:50:06;23.60;62.60
37658;DHT22;23500;53.268;8.308;2022-07-03T12:52:33;23.60;62.60
37658;DHT22;23500;53.268;8.308;2022-07-03T12:55:01;23.60;62.70
37658;DHT22;23500;53.268;8.308;2022-07-03T12:57:27;23.60;62.60
37658;DHT22;23500;53.268;8.308;2022-07-03T13:00:13;23.60;62.50
37658;DHT22;23500;53.268;8.308;2022-07-03T13:02:48;23.60;62.30
37658;DHT22;23500;53.268;8.308;2022-07-03T13:05:22;23.60;62.30
37658;DHT22;23500;53.268;8.308;2022-07-03T13:07:53;23.60;62.30
37658;DHT22;23500;53.268;8.308;2022-07-03T13:10:20;23.70;62.40
37658;DHT22;23500;53.268;8.308;2022-07-03T13:12:59;23.60;62.40
37658;DHT22;23500;53.268;8.308;2022-07-03T13:15:26;23.60;62.40
37658;DHT22;23500;53.268;8.308;2022-07-03T13:20:26;23.60;62.50
37658;DHT22;23500;53.268;8.308;2022-07-03T13:22:57;23.60;62.60
37658;DHT22;23500;53.268;8.308;2022-07-03T13:25:23;23.60;62.50
37658;DHT22;23500;53.268;8.308;2022-07-03T13:27:48;23.60;62.50
37658;DHT22;23500;53.268;8.308;2022-07-03T13:30:18;23.60;62.40
37658;DHT22;23500;53.268;8.308;2022-07-03T13:32:44;23.70;62.50
37658;DHT22;23500;53.268;8.308;2022-07-03T13:35:11;23.70;62.50
37658;DHT22;23500;53.268;8.308;2022-07-03T13:37:37;23.70;62.40
37658;DHT22;23500;53.268;8.308;2022-07-03T13:40:04;23.70;62.40
37658;DHT22;23500;53.268;8.308;2022-07-03T13:42:31;23.70;62.30
37658;DHT22;23500;53.268;8.308;2022-07-03T13:44:56;23.70;62.30
37658;DHT22;23500;53.268;8.308;2022-07-03T13:47:22;23.70;62.40
37658;DHT22;23500;53.268;8.308;2022-07-03T13:49:48;23.70;62.40
37658;DHT22;23500;53.268;8.308;2022-07-03T13:52:14;23.60;62.40
37658;DHT22;23500;53.268;8.308;2022-07-03T13:54:40;23.60;62.50
37658;DHT22;23500;53.268;8.308;2022-07-03T13:57:06;23.70;62.40
37658;DHT22;23500;53.268;8.308;2022-07-03T13:59:31;23.60;62.20
37658;DHT22;23500;53.268;8.308;2022-07-03T14:02:00;23.70;62.50
37658;DHT22;23500;53.268;8.308;2022-07-03T14:04:26;23.60;62.50
37658;DHT22;23500;53.268;8.308;2022-07-03T14:06:52;23.60;62.50
37658;DHT22;23500;53.268;8.308;2022-07-03T14:09:18;23.70;62.60
37658;DHT22;23500;53.268;8.308;2022-07-03T14:11:44;23.60;62.60
37658;DHT22;23500;53.268;8.308;2022-07-03T14:14:10;23.70;62.70
37658;DHT22;23500;53.268;8.308;2022-07-03T14:16:35;23.70;62.60
37658;DHT22;23500;53.268;8.308;2022-07-03T14:19:01;23.70;62.60
37658;DHT22;23500;53.268;8.308;2022-07-03T14:21:31;23.70;62.50
37658;DHT22;23500;53.268;8.308;2022-07-03T14:23:57;23.70;62.50
37658;DHT22;23500;53.268;8.308;2022-07-03T14:26:23;23.70;62.50
37658;DHT22;23500;53.268;8.308;2022-07-03T14:29:07;23.70;62.40
37658;DHT22;23500;53.268;8.308;2022-07-03T14:31:55;23.70;62.40
37658;DHT22;23500;53.268;8.308;2022-07-03T14:34:40;23.70;62.40
37658;DHT22;23500;53.268;8.308;2022-07-03T14:37:06;23.70;62.50
37658;DHT22;23500;53.268;8.308;2022-07-03T14:39:31;23.70;62.50
37658;DHT22;23500;53.268;8.308;2022-07-03T14:41:57;23.70;62.50
37658;DHT22;23500;53.268;8.308;2022-07-03T14:44:22;23.70;62.50
37658;DHT22;23500;53.268;8.308;2022-07-03T14:46:51;23.70;62.60
37658;DHT22;23500;53.268;8.308;2022-07-03T14:49:18;23.70;62.60
37658;DHT22;23500;53.268;8.308;2022-07-03T14:51:44;23.60;62.60
37658;DHT22;23500;53.268;8.308;2022-07-03T14:54:10;23.70;62.70
37658;DHT22;23500;53.268;8.308;2022-07-03T14:56:40;23.70;62.70
37658;DHT22;23500;53.268;8.308;2022-07-03T14:59:09;23.70;62.70
37658;DHT22;23500;53.268;8.308;2022-07-03T15:01:36;23.70;62.70
37658;DHT22;23500;53.268;8.308;2022-07-03T15:04:07;23.70;62.70
37658;DHT22;23500;53.268;8.308;2022-07-03T15:06:35;23.70;62.70
37658;DHT22;23500;53.268;8.308;2022-07-03T15:09:03;23.70;62.70
37658;DHT22;23500;53.268;8.308;2022-07-03T15:11:40;23.60;62.60
37658;DHT22;23500;53.268;8.308;2022-07-03T15:14:30;23.70;62.70
37658;DHT22;23500;53.268;8.308;2022-07-03T15:16:58;23.70;62.70
37658;DHT22;23500;53.268;8.308;2022-07-03T15:19:25;23.70;63.40
37658;DHT22;23500;53.268;8.308;2022-07-03T15:21:52;23.70;62.50
37658;DHT22;23500;53.268;8.308;2022-07-03T15:24:20;23.70;62.50
37658;DHT22;23500;53.268;8.308;2022-07-03T15:26:51;23.70;62.70
37658;DHT22;23500;53.268;8.308;2022-07-03T15:29:18;23.70;62.70
37658;DHT22;23500;53.268;8.308;2022-07-03T15:31:46;23.70;62.70
37658;DHT22;23500;53.268;8.308;2022-07-03T15:34:12;23.70;62.70
37658;DHT22;23500;53.268;8.308;2022-07-03T15:36:54;23.70;62.60
37658;DHT22;23500;53.268;8.308;2022-07-03T15:39:33;23.70;62.50
37658;DHT22;23500;53.268;8.308;2022-07-03T15:42:13;23.80;62.40
37658;DHT22;23500;53.268;8.308;2022-07-03T15:50:26;23.90;62.70
37658;DHT22;23500;53.268;8.308;2022-07-03T15:52:53;23.80;62.60
37658;DHT22;23500;53.268;8.308;2022-07-03T15:55:21;23.80;62.90
37658;DHT22;23500;53.268;8.308;2022-07-03T15:58:07;23.70;62.90
37658;DHT22;23500;53.268;8.308;2022-07-03T16:00:37;23.80;63.00
37658;DHT22;23500;53.268;8.308;2022-07-03T16:05:36;23.70;63.10
37658;DHT22;23500;53.268;8.308;2022-07-03T16:08:07;23.70;63.10
37658;DHT22;23500;53.268;8.308;2022-07-03T16:10:35;23.70;63.10
37658;DHT22;23500;53.268;8.308;2022-07-03T16:13:01;23.70;63.10
37658;DHT22;23500;53.268;8.308;2022-07-03T16:15:37;23.70;63.10
37658;DHT22;23500;53.268;8.308;2022-07-03T16:18:04;23.70;63.10
37658;DHT22;23500;53.268;8.308;2022-07-03T16:20:30;23.70;63.10
37658;DHT22;23500;53.268;8.308;2022-07-03T16:23:10;23.70;63.20
37658;DHT22;23500;53.268;8.308;2022-07-03T16:25:37;23.70;63.20
37658;DHT22;23500;53.268;8.308;2022-07-03T16:28:11;23.70;63.20
37658;DHT22;23500;53.268;8.308;2022-07-03T16:30:48;23.60;63.20
37658;DHT22;23500;53.268;8.308;2022-07-03T16:33:25;23.60;63.30
37658;DHT22;23500;53.268;8.308;2022-07-03T16:36:04;23.60;63.30
37658;DHT22;23500;53.268;8.308;2022-07-03T16:38:40;23.60;63.20
37658;DHT22;23500;53.268;8.308;2022-07-03T16:41:08;23.60;63.30
37658;DHT22;23500;53.268;8.308;2022-07-03T16:43:39;23.60;63.20
37658;DHT22;23500;53.268;8.308;2022-07-03T16:46:09;23.60;63.10
37658;DHT22;23500;53.268;8.308;2022-07-03T16:48:43;23.60;63.00
37658;DHT22;23500;53.268;8.308;2022-07-03T16:51:11;23.70;63.00
37658;DHT22;23500;53.268;8.308;2022-07-03T16:53:39;23.60;62.90
37658;DHT22;23500;53.268;8.308;2022-07-03T16:56:05;23.70;62.80